sensor_id;sensor_type;location;lat;lon;timestamp;P1;durP1;ratioP1;P2;durP2;ratioP2
52868;SDS011;39100;53.480;6.158;2022-09-09T00:00:12;1.35;;;0.70;;
52868;SDS011;39100;53.480;6.158;2022-09-09T00:02:41;1.15;;;1.02;;
52868;SDS011;39100;53.480;6.158;2022-09-09T00:05:17;0.75;;;0.75;;
52868;SDS011;39100;53.480;6.158;2022-09-09T00:07:58;2.00;;;1.00;;
52868;SDS011;39100;53.480;6.158;2022-09-09T00:10:38;1.02;;;0.80;;
52868;SDS011;39100;53.480;6.158;2022-09-09T00:13:20;2.03;;;0.93;;
52868;SDS011;39100;53.480;6.158;2022-09-09T00:18:30;1.20;;;1.10;;
52868;SDS011;39100;53.480;6.158;2022-09-09T00:21:15;1.13;;;1.05;;
52868;SDS011;39100;53.480;6.158;2022-09-09T00:23:49;2.05;;;1.00;;
52868;SDS011;39100;53.480;6.158;2022-09-09T00:31:56;1.35;;;1.25;;
52868;SDS011;39100;53.480;6.158;2022-09-09T00:34:34;2.38;;;1.25;;
52868;SDS011;39100;53.480;6.158;2022-09-09T00:37:01;1.40;;;1.20;;
52868;SDS011;39100;53.480;6.158;2022-09-09T00:39:32;1.27;;;0.88;;
52868;SDS011;39100;53.480;6.158;2022-09-09T00:42:10;0.80;;;0.80;;
52868;SDS011;39100;53.480;6.158;2022-09-09T00:44:59;0.63;;;0.63;;
52868;SDS011;39100;53.480;6.158;2022-09-09T00:47:49;1.38;;;0.80;;
52868;SDS011;39100;53.480;6.158;2022-09-09T00:52:58;0.75;;;0.75;;
52868;SDS011;39100;53.480;6.158;2022-09-09T00:55:40;0.98;;;0.80;;
52868;SDS011;39100;53.480;6.158;2022-09-09T00:58:13;2.05;;;0.82;;
52868;SDS011;39100;53.480;6.158;2022-09-09T01:00:46;2.00;;;0.73;;
52868;SDS011;39100;53.480;6.158;2022-09-09T01:06:15;0.82;;;0.60;;
52868;SDS011;39100;53.480;6.158;2022-09-09T01:11:51;0.63;;;0.57;;
52868;SDS011;39100;53.480;6.158;2022-09-09T01:28:09;1.23;;;1.00;;
52868;SDS011;39100;53.480;6.158;2022-09-09T01:30:40;1.30;;;1.00;;
52868;SDS011;39100;53.480;6.158;2022-09-09T01:33:07;1.20;;;1.10;;
52868;SDS011;39100;53.480;6.158;2022-09-09T01:35:41;2.85;;;1.00;;
52868;SDS011;39100;53.480;6.158;2022-09-09T01:38:07;1.42;;;1.10;;
52868;SDS011;39100;53.480;6.158;2022-09-09T01:40:33;1.20;;;1.10;;
52868;SDS011;39100;53.480;6.158;2022-09-09T01:42:59;1.48;;;1.08;;
52868;SDS011;39100;53.480;6.158;2022-09-09T01:45:25;2.30;;;1.05;;
52868;SDS011;39100;53.480;6.158;2022-09-09T01:47:54;0.68;;;0.68;;
52868;SDS011;39100;53.480;6.158;2022-09-09T01:53:43;0.70;;;0.70;;
52868;SDS011;39100;53.480;6.158;2022-09-09T02:07:03;0.88;;;0.88;;
52868;SDS011;39100;53.480;6.158;2022-09-09T02:09:40;1.60;;;1.20;;
52868;SDS011;39100;53.480;6.158;2022-09-09T02:12:25;1.63;;;1.30;;
52868;SDS011;39100;53.480;6.158;2022-09-09T02:15:00;1.23;;;1.02;;
52868;SDS011;39100;53.480;6.158;2022-09-09T02:17:31;1.38;;;1.10;;
52868;SDS011;39100;53.480;6.158;2022-09-09T02:20:05;1.38;;;1.25;;
52868;SDS011;39100;53.480;6.158;2022-09-09T02:22:34;1.95;;;0.90;;
52868;SDS011;39100;53.480;6.158;2022-09-09T02:25:04;3.08;;;1.10;;
52868;SDS011;39100;53.480;6.158;2022-09-09T02:27:33;2.40;;;1.13;;
52868;SDS011;39100;53.480;6.158;2022-09-09T02:29:59;1.42;;;1.33;;
52868;SDS011;39100;53.480;6.158;2022-09-09T02:32:28;1.25;;;1.15;;
52868;SDS011;39100;53.480;6.158;2022-09-09T02:34:58;1.45;;;0.80;;
52868;SDS011;39100;53.480;6.158;2022-09-09T02:37:28;1.33;;;1.00;;
52868;SDS011;39100;53.480;6.158;2022-09-09T02:40:02;2.47;;;1.27;;
52868;SDS011;39100;53.480;6.158;2022-09-09T02:42:29;1.65;;;1.40;;
52868;SDS011;39100;53.480;6.158;2022-09-09T02:44:55;1.52;;;0.82;;
52868;SDS011;39100;53.480;6.158;2022-09-09T02:47:31;1.48;;;1.10;;
52868;SDS011;39100;53.480;6.158;2022-09-09T02:50:12;1.63;;;1.20;;
52868;SDS011;39100;53.480;6.158;2022-09-09T02:57:55;1.35;;;1.10;;
52868;SDS011;39100;53.480;6.158;2022-09-09T03:00:27;1.20;;;1.10;;
52868;SDS011;39100;53.480;6.158;2022-09-09T03:05:19;1.27;;;1.17;;
52868;SDS011;39100;53.480;6.158;2022-09-09T03:07:45;1.45;;;1.33;;
52868;SDS011;39100;53.480;6.158;2022-09-09T03:10:11;2.38;;;1.60;;
52868;SDS011;39100;53.480;6.158;2022-09-09T03:12:37;1.42;;;1.30;;
52868;SDS011;39100;53.480;6.158;2022-09-09T03:15:03;1.63;;;1.33;;
52868;SDS011;39100;53.480;6.158;2022-09-09T03:17:30;1.88;;;1.77;;
52868;SDS011;39100;53.480;6.158;2022-09-09T03:19:55;1.48;;;1.13;;
52868;SDS011;39100;53.480;6.158;2022-09-09T03:22:23;1.35;;;1.25;;
52868;SDS011;39100;53.480;6.158;2022-09-09T03:24:50;2.15;;;0.98;;
52868;SDS011;39100;53.480;6.158;2022-09-09T03:27:16;1.48;;;1.35;;
52868;SDS011;39100;53.480;6.158;2022-09-09T03:29:42;1.83;;;1.10;;
52868;SDS011;39100;53.480;6.158;2022-09-09T03:32:08;2.22;;;1.42;;
52868;SDS011;39100;53.480;6.158;2022-09-09T03:34:35;1.30;;;1.10;;
52868;SDS011;39100;53.480;6.158;2022-09-09T03:37:04;0.98;;;0.90;;
52868;SDS011;39100;53.480;6.158;2022-09-09T03:39:30;1.38;;;1.17;;
52868;SDS011;39100;53.480;6.158;2022-09-09T03:41:56;1.92;;;1.48;;
52868;SDS011;39100;53.480;6.158;2022-09-09T03:44:21;0.80;;;0.80;;
52868;SDS011;39100;53.480;6.158;2022-09-09T03:46:47;1.17;;;1.08;;
52868;SDS011;39100;53.480;6.158;2022-09-09T03:49:12;1.02;;;0.93;;
52868;SDS011;39100;53.480;6.158;2022-09-09T03:51:38;1.67;;;0.98;;
52868;SDS011;39100;53.480;6.158;2022-09-09T03:54:05;1.30;;;1.02;;
52868;SDS011;39100;53.480;6.158;2022-09-09T03:56:33;1.33;;;1.00;;
52868;SDS011;39100;53.480;6.158;2022-09-09T03:58:59;0.73;;;0.73;;
52868;SDS011;39100;53.480;6.158;2022-09-09T04:01:25;1.35;;;1.25;;
52868;SDS011;39100;53.480;6.158;2022-09-09T04:03:50;1.33;;;0.98;;
52868;SDS011;39100;53.480;6.158;2022-09-09T04:06:17;1.98;;;1.00;;
52868;SDS011;39100;53.480;6.158;2022-09-09T04:08:45;2.13;;;1.40;;
52868;SDS011;39100;53.480;6.158;2022-09-09T04:11:13;2.10;;;1.20;;
52868;SDS011;39100;53.480;6.158;2022-09-09T04:13:40;2.20;;;1.50;;
52868;SDS011;39100;53.480;6.158;2022-09-09T04:16:06;2.25;;;1.40;;
52868;SDS011;39100;53.480;6.158;2022-09-09T04:18:35;1.77;;;1.50;;
52868;SDS011;39100;53.480;6.158;2022-09-09T04:21:00;3.33;;;2.28;;
52868;SDS011;39100;53.480;6.158;2022-09-09T04:23:27;3.85;;;2.78;;
52868;SDS011;39100;53.480;6.158;2022-09-09T04:25:56;2.70;;;2.50;;
52868;SDS011;39100;53.480;6.158;2022-09-09T04:28:24;3.63;;;2.78;;
52868;SDS011;39100;53.480;6.158;2022-09-09T04:30:51;4.03;;;2.30;;
52868;SDS011;39100;53.480;6.158;2022-09-09T04:33:17;3.35;;;2.45;;
52868;SDS011;39100;53.480;6.158;2022-09-09T04:35:47;3.63;;;2.30;;
52868;SDS011;39100;53.480;6.158;2022-09-09T04:38:14;3.97;;;2.78;;
52868;SDS011;39100;53.480;6.158;2022-09-09T04:40:45;4.57;;;2.95;;
52868;SDS011;39100;53.480;6.158;2022-09-09T04:43:12;3.57;;;2.47;;
52868;SDS011;39100;53.480;6.158;2022-09-09T04:45:39;3.22;;;2.60;;
52868;SDS011;39100;53.480;6.158;2022-09-09T04:48:05;6.50;;;2.50;;
52868;SDS011;39100;53.480;6.158;2022-09-09T04:50:31;3.00;;;2.15;;
52868;SDS011;39100;53.480;6.158;2022-09-09T04:52:59;2.83;;;2.05;;
52868;SDS011;39100;53.480;6.158;2022-09-09T04:55:26;4.28;;;2.58;;
52868;SDS011;39100;53.480;6.158;2022-09-09T04:57:52;5.00;;;2.70;;
52868;SDS011;39100;53.480;6.158;2022-09-09T05:00:17;5.43;;;3.10;;
52868;SDS011;39100;53.480;6.158;2022-09-09T05:02:43;4.20;;;3.00;;
52868;SDS011;39100;53.480;6.158;2022-09-09T05:05:09;5.68;;;3.15;;
52868;SDS011;39100;53.480;6.158;2022-09-09T05:07:36;5.70;;;3.40;;
52868;SDS011;39100;53.480;6.158;2022-09-09T05:10:02;4.60;;;3.15;;
52868;SDS011;39100;53.480;6.158;2022-09-09T05:12:30;3.97;;;3.20;;
52868;SDS011;39100;53.480;6.158;2022-09-09T05:14:56;6.25;;;3.60;;
52868;SDS011;39100;53.480;6.158;2022-09-09T05:17:22;3.95;;;2.78;;
52868;SDS011;39100;53.480;6.158;2022-09-09T05:19:48;4.07;;;3.42;;
52868;SDS011;39100;53.480;6.158;2022-09-09T05:22:17;4.82;;;3.15;;
52868;SDS011;39100;53.480;6.158;2022-09-09T05:24:45;4.77;;;2.70;;
52868;SDS011;39100;53.480;6.158;2022-09-09T05:27:11;4.00;;;2.65;;
52868;SDS011;39100;53.480;6.158;2022-09-09T05:29:37;4.07;;;2.67;;
52868;SDS011;39100;53.480;6.158;2022-09-09T05:32:03;3.08;;;2.45;;
52868;SDS011;39100;53.480;6.158;2022-09-09T05:34:29;3.58;;;2.70;;
52868;SDS011;39100;53.480;6.158;2022-09-09T05:36:55;2.75;;;2.42;;
52868;SDS011;39100;53.480;6.158;2022-09-09T05:39:20;3.45;;;3.00;;
52868;SDS011;39100;53.480;6.158;2022-09-09T05:41:46;3.97;;;2.97;;
52868;SDS011;39100;53.480;6.158;2022-09-09T05:44:11;4.22;;;2.95;;
52868;SDS011;39100;53.480;6.158;2022-09-09T05:46:37;3.05;;;2.60;;
52868;SDS011;39100;53.480;6.158;2022-09-09T05:49:03;4.13;;;3.20;;
52868;SDS011;39100;53.480;6.158;2022-09-09T05:51:30;5.97;;;3.15;;
52868;SDS011;39100;53.480;6.158;2022-09-09T05:53:56;4.45;;;3.00;;
52868;SDS011;39100;53.480;6.158;2022-09-09T05:56:26;3.15;;;2.30;;
52868;SDS011;39100;53.480;6.158;2022-09-09T05:58:53;4.25;;;3.60;;
52868;SDS011;39100;53.480;6.158;2022-09-09T06:01:21;3.72;;;3.42;;
52868;SDS011;39100;53.480;6.158;2022-09-09T06:03:48;7.22;;;3.90;;
52868;SDS011;39100;53.480;6.158;2022-09-09T06:06:16;6.10;;;4.28;;
52868;SDS011;39100;53.480;6.158;2022-09-09T06:08:45;6.43;;;4.78;;
52868;SDS011;39100;53.480;6.158;2022-09-09T06:13:39;5.95;;;3.88;;
52868;SDS011;39100;53.480;6.158;2022-09-09T06:16:08;6.68;;;4.10;;
52868;SDS011;39100;53.480;6.158;2022-09-09T06:18:36;5.53;;;4.22;;
52868;SDS011;39100;53.480;6.158;2022-09-09T06:21:03;5.35;;;3.50;;
52868;SDS011;39100;53.480;6.158;2022-09-09T06:23:31;2.92;;;2.28;;
52868;SDS011;39100;53.480;6.158;2022-09-09T06:26:11;5.35;;;2.22;;
52868;SDS011;39100;53.480;6.158;2022-09-09T06:28:43;3.38;;;2.40;;
52868;SDS011;39100;53.480;6.158;2022-09-09T06:31:11;5.18;;;2.85;;
52868;SDS011;39100;53.480;6.158;2022-09-09T06:33:38;3.03;;;2.30;;
52868;SDS011;39100;53.480;6.158;2022-09-09T06:36:06;2.35;;;2.13;;
52868;SDS011;39100;53.480;6.158;2022-09-09T06:38:36;2.33;;;1.92;;
52868;SDS011;39100;53.480;6.158;2022-09-09T06:41:02;5.00;;;2.40;;
52868;SDS011;39100;53.480;6.158;2022-09-09T06:43:28;4.28;;;2.10;;
52868;SDS011;39100;53.480;6.158;2022-09-09T06:45:58;2.33;;;2.05;;
52868;SDS011;39100;53.480;6.158;2022-09-09T06:48:25;3.20;;;2.17;;
52868;SDS011;39100;53.480;6.158;2022-09-09T06:50:59;2.80;;;2.47;;
52868;SDS011;39100;53.480;6.158;2022-09-09T06:53:29;2.10;;;1.90;;
52868;SDS011;39100;53.480;6.158;2022-09-09T06:58:40;5.05;;;1.92;;
52868;SDS011;39100;53.480;6.158;2022-09-09T07:01:08;3.00;;;2.42;;
52868;SDS011;39100;53.480;6.158;2022-09-09T07:03:34;2.58;;;1.90;;
52868;SDS011;39100;53.480;6.158;2022-09-09T07:06:00;5.18;;;2.40;;
52868;SDS011;39100;53.480;6.158;2022-09-09T07:08:26;2.70;;;2.08;;
52868;SDS011;39100;53.480;6.158;2022-09-09T07:10:52;3.00;;;2.40;;
52868;SDS011;39100;53.480;6.158;2022-09-09T07:13:19;4.05;;;2.13;;
52868;SDS011;39100;53.480;6.158;2022-09-09T07:15:50;2.45;;;1.92;;
52868;SDS011;39100;53.480;6.158;2022-09-09T07:18:16;6.20;;;2.10;;
52868;SDS011;39100;53.480;6.158;2022-09-09T07:20:42;3.45;;;2.38;;
52868;SDS011;39100;53.480;6.158;2022-09-09T07:23:07;3.35;;;2.50;;
52868;SDS011;39100;53.480;6.158;2022-09-09T07:25:33;3.63;;;2.10;;
52868;SDS011;39100;53.480;6.158;2022-09-09T07:27:58;2.70;;;2.13;;
52868;SDS011;39100;53.480;6.158;2022-09-09T07:30:24;2.92;;;2.58;;
52868;SDS011;39100;53.480;6.158;2022-09-09T07:32:53;3.03;;;2.28;;
52868;SDS011;39100;53.480;6.158;2022-09-09T07:35:18;2.63;;;2.20;;
52868;SDS011;39100;53.480;6.158;2022-09-09T07:37:44;3.22;;;2.22;;
52868;SDS011;39100;53.480;6.158;2022-09-09T07:40:10;2.78;;;2.17;;
52868;SDS011;39100;53.480;6.158;2022-09-09T07:42:35;3.63;;;2.08;;
52868;SDS011;39100;53.480;6.158;2022-09-09T07:45:02;3.03;;;1.73;;
52868;SDS011;39100;53.480;6.158;2022-09-09T07:47:29;2.30;;;1.80;;
52868;SDS011;39100;53.480;6.158;2022-09-09T07:49:54;2.25;;;1.98;;
52868;SDS011;39100;53.480;6.158;2022-09-09T07:52:20;2.10;;;1.90;;
52868;SDS011;39100;53.480;6.158;2022-09-09T07:54:46;2.50;;;1.80;;
52868;SDS011;39100;53.480;6.158;2022-09-09T07:57:12;1.45;;;1.17;;
52868;SDS011;39100;53.480;6.158;2022-09-09T07:59:37;2.13;;;1.58;;
52868;SDS011;39100;53.480;6.158;2022-09-09T08:02:03;2.78;;;1.63;;
52868;SDS011;39100;53.480;6.158;2022-09-09T08:04:31;3.00;;;1.52;;
52868;SDS011;39100;53.480;6.158;2022-09-09T08:06:57;1.88;;;1.30;;
52868;SDS011;39100;53.480;6.158;2022-09-09T08:09:24;3.20;;;1.85;;
52868;SDS011;39100;53.480;6.158;2022-09-09T08:11:53;3.05;;;2.15;;
52868;SDS011;39100;53.480;6.158;2022-09-09T08:14:20;3.05;;;1.95;;
52868;SDS011;39100;53.480;6.158;2022-09-09T08:16:46;4.18;;;1.48;;
52868;SDS011;39100;53.480;6.158;2022-09-09T08:19:13;2.63;;;1.48;;
52868;SDS011;39100;53.480;6.158;2022-09-09T08:21:40;2.08;;;1.50;;
52868;SDS011;39100;53.480;6.158;2022-09-09T08:24:07;4.88;;;1.35;;
52868;SDS011;39100;53.480;6.158;2022-09-09T08:26:36;2.53;;;1.20;;
52868;SDS011;39100;53.480;6.158;2022-09-09T08:29:04;3.20;;;1.33;;
52868;SDS011;39100;53.480;6.158;2022-09-09T08:31:32;4.15;;;1.45;;
52868;SDS011;39100;53.480;6.158;2022-09-09T08:34:00;2.35;;;1.23;;
52868;SDS011;39100;53.480;6.158;2022-09-09T08:36:30;2.35;;;1.10;;
52868;SDS011;39100;53.480;6.158;2022-09-09T08:38:58;3.10;;;1.30;;
52868;SDS011;39100;53.480;6.158;2022-09-09T08:55:25;2.75;;;1.05;;
52868;SDS011;39100;53.480;6.158;2022-09-09T08:58:17;4.32;;;1.23;;
52868;SDS011;39100;53.480;6.158;2022-09-09T09:14:26;1.83;;;1.30;;
52868;SDS011;39100;53.480;6.158;2022-09-09T09:17:00;2.97;;;1.15;;
52868;SDS011;39100;53.480;6.158;2022-09-09T09:19:32;2.35;;;1.20;;
52868;SDS011;39100;53.480;6.158;2022-09-09T09:22:00;3.47;;;1.30;;
52868;SDS011;39100;53.480;6.158;2022-09-09T09:27:34;6.03;;;1.15;;
52868;SDS011;39100;53.480;6.158;2022-09-09T09:32:40;1.48;;;1.00;;
52868;SDS011;39100;53.480;6.158;2022-09-09T09:35:13;1.08;;;0.85;;
52868;SDS011;39100;53.480;6.158;2022-09-09T09:37:39;3.50;;;1.15;;
52868;SDS011;39100;53.480;6.158;2022-09-09T09:40:24;4.18;;;2.47;;
52868;SDS011;39100;53.480;6.158;2022-09-09T09:42:54;4.82;;;2.03;;
52868;SDS011;39100;53.480;6.158;2022-09-09T09:47:57;4.20;;;2.47;;
52868;SDS011;39100;53.480;6.158;2022-09-09T09:50:24;3.28;;;2.55;;
52868;SDS011;39100;53.480;6.158;2022-09-09T09:52:54;3.10;;;1.20;;
52868;SDS011;39100;53.480;6.158;2022-09-09T09:55:22;2.10;;;0.98;;
52868;SDS011;39100;53.480;6.158;2022-09-09T09:57:49;4.32;;;1.20;;
52868;SDS011;39100;53.480;6.158;2022-09-09T10:00:22;2.40;;;0.95;;
52868;SDS011;39100;53.480;6.158;2022-09-09T10:02:48;2.88;;;1.33;;
52868;SDS011;39100;53.480;6.158;2022-09-09T10:07:46;1.20;;;0.80;;
52868;SDS011;39100;53.480;6.158;2022-09-09T10:10:28;2.00;;;0.90;;
52868;SDS011;39100;53.480;6.158;2022-09-09T10:16:19;2.25;;;1.15;;
52868;SDS011;39100;53.480;6.158;2022-09-09T10:18:58;1.67;;;0.80;;
52868;SDS011;39100;53.480;6.158;2022-09-09T10:32:15;2.15;;;0.93;;
52868;SDS011;39100;53.480;6.158;2022-09-09T10:35:04;5.20;;;0.85;;
52868;SDS011;39100;53.480;6.158;2022-09-09T10:40:43;5.18;;;0.85;;
52868;SDS011;39100;53.480;6.158;2022-09-09T10:49:41;2.88;;;0.50;;
52868;SDS011;39100;53.480;6.158;2022-09-09T10:55:29;1.27;;;0.40;;
52868;SDS011;39100;53.480;6.158;2022-09-09T10:58:02;1.52;;;0.45;;
52868;SDS011;39100;53.480;6.158;2022-09-09T11:00:36;1.23;;;0.40;;
52868;SDS011;39100;53.480;6.158;2022-09-09T11:03:14;2.05;;;0.57;;
52868;SDS011;39100;53.480;6.158;2022-09-09T11:05:55;1.08;;;0.40;;
52868;SDS011;39100;53.480;6.158;2022-09-09T11:08:27;2.33;;;0.50;;
52868;SDS011;39100;53.480;6.158;2022-09-09T11:13:39;2.63;;;0.50;;
52868;SDS011;39100;53.480;6.158;2022-09-09T11:16:13;1.05;;;0.43;;
52868;SDS011;39100;53.480;6.158;2022-09-09T11:18:46;2.40;;;0.35;;
52868;SDS011;39100;53.480;6.158;2022-09-09T11:21:20;1.30;;;0.30;;
52868;SDS011;39100;53.480;6.158;2022-09-09T11:23:55;2.13;;;0.63;;
52868;SDS011;39100;53.480;6.158;2022-09-09T11:27:09;1.15;;;0.30;;
52868;SDS011;39100;53.480;6.158;2022-09-09T11:32:25;3.08;;;0.38;;
52868;SDS011;39100;53.480;6.158;2022-09-09T11:35:20;2.28;;;0.57;;
52868;SDS011;39100;53.480;6.158;2022-09-09T11:38:18;1.85;;;0.30;;
52868;SDS011;39100;53.480;6.158;2022-09-09T11:40:44;0.30;;;0.20;;
52868;SDS011;39100;53.480;6.158;2022-09-09T11:43:15;1.05;;;0.30;;
52868;SDS011;39100;53.480;6.158;2022-09-09T11:45:50;1.65;;;0.30;;
52868;SDS011;39100;53.480;6.158;2022-09-09T11:48:28;1.42;;;0.32;;
52868;SDS011;39100;53.480;6.158;2022-09-09T11:51:02;1.25;;;0.40;;
52868;SDS011;39100;53.480;6.158;2022-09-09T11:53:32;0.77;;;0.45;;
52868;SDS011;39100;53.480;6.158;2022-09-09T11:56:06;1.92;;;0.25;;
52868;SDS011;39100;53.480;6.158;2022-09-09T11:58:36;2.25;;;0.75;;
52868;SDS011;39100;53.480;6.158;2022-09-09T12:01:14;1.05;;;0.30;;
52868;SDS011;39100;53.480;6.158;2022-09-09T12:07:02;1.95;;;0.47;;
52868;SDS011;39100;53.480;6.158;2022-09-09T12:09:48;1.73;;;0.25;;
52868;SDS011;39100;53.480;6.158;2022-09-09T12:14:59;1.08;;;0.30;;
52868;SDS011;39100;53.480;6.158;2022-09-09T12:17:52;3.92;;;0.40;;
52868;SDS011;39100;53.480;6.158;2022-09-09T12:37:06;7.30;;;0.60;;
52868;SDS011;39100;53.480;6.158;2022-09-09T12:39:51;2.33;;;0.73;;
52868;SDS011;39100;53.480;6.158;2022-09-09T12:42:24;3.50;;;0.70;;
52868;SDS011;39100;53.480;6.158;2022-09-09T12:44:58;2.03;;;0.80;;
52868;SDS011;39100;53.480;6.158;2022-09-09T12:47:27;4.70;;;0.63;;
52868;SDS011;39100;53.480;6.158;2022-09-09T12:50:03;1.90;;;0.75;;
52868;SDS011;39100;53.480;6.158;2022-09-09T12:52:34;2.58;;;0.57;;
52868;SDS011;39100;53.480;6.158;2022-09-09T12:55:03;5.07;;;1.30;;
52868;SDS011;39100;53.480;6.158;2022-09-09T12:57:35;1.98;;;0.57;;
52868;SDS011;39100;53.480;6.158;2022-09-09T13:00:07;2.83;;;0.60;;
52868;SDS011;39100;53.480;6.158;2022-09-09T13:02:57;1.92;;;0.70;;
52868;SDS011;39100;53.480;6.158;2022-09-09T13:05:25;2.08;;;0.60;;
52868;SDS011;39100;53.480;6.158;2022-09-09T13:08:06;1.50;;;0.35;;
52868;SDS011;39100;53.480;6.158;2022-09-09T13:13:34;2.55;;;0.70;;
52868;SDS011;39100;53.480;6.158;2022-09-09T13:16:02;3.33;;;0.70;;
52868;SDS011;39100;53.480;6.158;2022-09-09T13:18:31;3.78;;;1.02;;
52868;SDS011;39100;53.480;6.158;2022-09-09T13:20:58;2.63;;;0.50;;
52868;SDS011;39100;53.480;6.158;2022-09-09T13:23:26;4.78;;;0.80;;
52868;SDS011;39100;53.480;6.158;2022-09-09T13:26:02;3.85;;;0.90;;
52868;SDS011;39100;53.480;6.158;2022-09-09T13:28:46;1.77;;;0.55;;
52868;SDS011;39100;53.480;6.158;2022-09-09T13:31:20;2.97;;;0.52;;
52868;SDS011;39100;53.480;6.158;2022-09-09T13:33:52;3.25;;;0.45;;
52868;SDS011;39100;53.480;6.158;2022-09-09T13:36:27;2.38;;;0.82;;
52868;SDS011;39100;53.480;6.158;2022-09-09T13:38:58;2.08;;;0.30;;
52868;SDS011;39100;53.480;6.158;2022-09-09T13:41:34;0.68;;;0.20;;
52868;SDS011;39100;53.480;6.158;2022-09-09T13:44:02;1.45;;;0.43;;
52868;SDS011;39100;53.480;6.158;2022-09-09T13:46:41;2.55;;;0.40;;
52868;SDS011;39100;53.480;6.158;2022-09-09T13:51:37;2.05;;;0.50;;
52868;SDS011;39100;53.480;6.158;2022-09-09T13:54:11;2.08;;;0.40;;
52868;SDS011;39100;53.480;6.158;2022-09-09T13:56:38;3.75;;;0.45;;
52868;SDS011;39100;53.480;6.158;2022-09-09T13:59:05;1.60;;;0.35;;
52868;SDS011;39100;53.480;6.158;2022-09-09T14:01:34;1.45;;;0.70;;
52868;SDS011;39100;53.480;6.158;2022-09-09T14:04:00;1.88;;;0.57;;
52868;SDS011;39100;53.480;6.158;2022-09-09T14:06:26;2.08;;;0.70;;
52868;SDS011;39100;53.480;6.158;2022-09-09T14:08:52;3.55;;;0.30;;
52868;SDS011;39100;53.480;6.158;2022-09-09T14:11:19;1.42;;;0.40;;
52868;SDS011;39100;53.480;6.158;2022-09-09T14:13:46;0.65;;;0.47;;
52868;SDS011;39100;53.480;6.158;2022-09-09T14:16:12;1.95;;;0.20;;
52868;SDS011;39100;53.480;6.158;2022-09-09T14:18:38;0.73;;;0.30;;
52868;SDS011;39100;53.480;6.158;2022-09-09T14:21:04;1.58;;;0.17;;
52868;SDS011;39100;53.480;6.158;2022-09-09T14:23:29;1.40;;;0.30;;
52868;SDS011;39100;53.480;6.158;2022-09-09T14:25:55;2.22;;;0.13;;
52868;SDS011;39100;53.480;6.158;2022-09-09T14:28:21;3.72;;;0.63;;
52868;SDS011;39100;53.480;6.158;2022-09-09T14:30:47;8.00;;;1.00;;
52868;SDS011;39100;53.480;6.158;2022-09-09T14:33:13;18.02;;;1.88;;
52868;SDS011;39100;53.480;6.158;2022-09-09T14:35:40;11.23;;;1.90;;
52868;SDS011;39100;53.480;6.158;2022-09-09T14:38:07;5.32;;;0.90;;
52868;SDS011;39100;53.480;6.158;2022-09-09T14:40:34;7.22;;;0.60;;
52868;SDS011;39100;53.480;6.158;2022-09-09T14:43:00;4.90;;;0.73;;
52868;SDS011;39100;53.480;6.158;2022-09-09T14:45:27;2.28;;;0.28;;
52868;SDS011;39100;53.480;6.158;2022-09-09T14:47:53;1.27;;;0.32;;
52868;SDS011;39100;53.480;6.158;2022-09-09T14:50:19;1.08;;;0.30;;
52868;SDS011;39100;53.480;6.158;2022-09-09T14:52:46;2.40;;;0.40;;
52868;SDS011;39100;53.480;6.158;2022-09-09T14:55:12;2.03;;;0.50;;
52868;SDS011;39100;53.480;6.158;2022-09-09T14:57:38;3.55;;;0.50;;
52868;SDS011;39100;53.480;6.158;2022-09-09T15:00:05;2.83;;;0.50;;
52868;SDS011;39100;53.480;6.158;2022-09-09T15:02:33;8.10;;;1.48;;
52868;SDS011;39100;53.480;6.158;2022-09-09T15:04:58;3.47;;;0.43;;
52868;SDS011;39100;53.480;6.158;2022-09-09T15:07:24;4.18;;;0.30;;
52868;SDS011;39100;53.480;6.158;2022-09-09T15:09:51;0.25;;;0.10;;
52868;SDS011;39100;53.480;6.158;2022-09-09T15:12:17;1.00;;;0.20;;
52868;SDS011;39100;53.480;6.158;2022-09-09T15:14:43;3.35;;;0.30;;
52868;SDS011;39100;53.480;6.158;2022-09-09T15:17:11;1.42;;;0.40;;
52868;SDS011;39100;53.480;6.158;2022-09-09T15:19:37;1.95;;;0.35;;
52868;SDS011;39100;53.480;6.158;2022-09-09T15:22:04;2.60;;;1.00;;
52868;SDS011;39100;53.480;6.158;2022-09-09T15:24:33;3.80;;;0.65;;
52868;SDS011;39100;53.480;6.158;2022-09-09T15:27:00;2.10;;;0.98;;
52868;SDS011;39100;53.480;6.158;2022-09-09T15:29:26;1.75;;;0.55;;
52868;SDS011;39100;53.480;6.158;2022-09-09T15:31:53;1.92;;;0.70;;
52868;SDS011;39100;53.480;6.158;2022-09-09T15:34:19;0.85;;;0.40;;
52868;SDS011;39100;53.480;6.158;2022-09-09T15:36:45;2.08;;;0.38;;
52868;SDS011;39100;53.480;6.158;2022-09-09T15:39:12;1.70;;;0.95;;
52868;SDS011;39100;53.480;6.158;2022-09-09T15:41:40;1.10;;;0.43;;
52868;SDS011;39100;53.480;6.158;2022-09-09T15:44:10;2.42;;;1.17;;
52868;SDS011;39100;53.480;6.158;2022-09-09T15:46:44;2.33;;;0.75;;
52868;SDS011;39100;53.480;6.158;2022-09-09T15:49:19;1.23;;;0.50;;
52868;SDS011;39100;53.480;6.158;2022-09-09T15:51:55;0.85;;;0.55;;
52868;SDS011;39100;53.480;6.158;2022-09-09T15:54:23;1.42;;;0.52;;
52868;SDS011;39100;53.480;6.158;2022-09-09T15:56:57;1.45;;;0.40;;
52868;SDS011;39100;53.480;6.158;2022-09-09T15:59:25;3.65;;;0.40;;
52868;SDS011;39100;53.480;6.158;2022-09-09T16:01:53;1.40;;;0.70;;
52868;SDS011;39100;53.480;6.158;2022-09-09T16:04:20;3.67;;;0.50;;
52868;SDS011;39100;53.480;6.158;2022-09-09T16:06:56;1.52;;;0.30;;
52868;SDS011;39100;53.480;6.158;2022-09-09T16:09:26;1.55;;;0.25;;
52868;SDS011;39100;53.480;6.158;2022-09-09T16:11:53;1.40;;;0.40;;
52868;SDS011;39100;53.480;6.158;2022-09-09T16:14:21;2.15;;;0.30;;
52868;SDS011;39100;53.480;6.158;2022-09-09T16:16:47;2.85;;;0.45;;
52868;SDS011;39100;53.480;6.158;2022-09-09T16:19:13;1.70;;;0.50;;
52868;SDS011;39100;53.480;6.158;2022-09-09T16:21:40;1.15;;;0.25;;
52868;SDS011;39100;53.480;6.158;2022-09-09T16:24:08;2.20;;;0.80;;
52868;SDS011;39100;53.480;6.158;2022-09-09T16:26:36;4.03;;;0.60;;
52868;SDS011;39100;53.480;6.158;2022-09-09T16:29:03;3.63;;;0.50;;
52868;SDS011;39100;53.480;6.158;2022-09-09T16:31:29;4.13;;;0.73;;
52868;SDS011;39100;53.480;6.158;2022-09-09T16:33:56;1.30;;;0.30;;
52868;SDS011;39100;53.480;6.158;2022-09-09T16:38:53;4.88;;;0.45;;
52868;SDS011;39100;53.480;6.158;2022-09-09T16:41:20;5.40;;;1.30;;
52868;SDS011;39100;53.480;6.158;2022-09-09T16:43:46;0.60;;;0.30;;
52868;SDS011;39100;53.480;6.158;2022-09-09T16:46:13;2.38;;;0.50;;
52868;SDS011;39100;53.480;6.158;2022-09-09T16:48:42;1.38;;;0.40;;
52868;SDS011;39100;53.480;6.158;2022-09-09T16:51:12;1.20;;;0.50;;
52868;SDS011;39100;53.480;6.158;2022-09-09T16:53:42;2.97;;;0.45;;
52868;SDS011;39100;53.480;6.158;2022-09-09T16:56:12;0.73;;;0.30;;
52868;SDS011;39100;53.480;6.158;2022-09-09T16:58:43;0.85;;;0.50;;
52868;SDS011;39100;53.480;6.158;2022-09-09T17:01:15;1.45;;;0.40;;
52868;SDS011;39100;53.480;6.158;2022-09-09T17:03:40;2.00;;;0.43;;
52868;SDS011;39100;53.480;6.158;2022-09-09T17:06:10;0.75;;;0.32;;
52868;SDS011;39100;53.480;6.158;2022-09-09T17:08:37;1.48;;;0.40;;
52868;SDS011;39100;53.480;6.158;2022-09-09T17:11:04;1.20;;;0.52;;
52868;SDS011;39100;53.480;6.158;2022-09-09T17:13:45;3.00;;;0.67;;
52868;SDS011;39100;53.480;6.158;2022-09-09T17:16:12;1.48;;;1.02;;
52868;SDS011;39100;53.480;6.158;2022-09-09T17:18:40;6.93;;;0.93;;
52868;SDS011;39100;53.480;6.158;2022-09-09T17:21:12;1.25;;;0.50;;
52868;SDS011;39100;53.480;6.158;2022-09-09T17:23:39;1.58;;;0.60;;
52868;SDS011;39100;53.480;6.158;2022-09-09T17:26:06;0.88;;;0.57;;
52868;SDS011;39100;53.480;6.158;2022-09-09T17:28:34;1.38;;;0.50;;
52868;SDS011;39100;53.480;6.158;2022-09-09T17:31:01;1.98;;;0.85;;
52868;SDS011;39100;53.480;6.158;2022-09-09T17:33:29;1.50;;;0.80;;
52868;SDS011;39100;53.480;6.158;2022-09-09T17:36:05;1.45;;;0.28;;
52868;SDS011;39100;53.480;6.158;2022-09-09T17:38:36;1.02;;;0.57;;
52868;SDS011;39100;53.480;6.158;2022-09-09T17:41:06;2.42;;;0.70;;